SWA4054 KOAK-KLAX
Flight info
| Callsign | SWA4054 |
|---|---|
| Flight time | 1h 0m |
| Altitude | 35000 |
| Route | CNDEL5 SUSEY EBAYE BURGL IRNMN2 |
| Aircraft | B737/M-SADE2E3GIJ4RWZ/LB1D1 |
Departure
| Time | 2026-04-26 01:20 |
|---|---|
| Airport | San Francisco Bay Oakland International Airport (KOAK) |
Arrival
| Time | 2026-04-26 02:20 |
|---|---|
| Airport | Los Angeles International Airport (KLAX) |
| Time | Latitude | Longitude | Altitude | Speed | Heading |
|---|---|---|---|---|---|
| 2026-04-26 00:39 | 37.71051 | -122.21201 | 8 ft | 0 kts | 82° |
| 2026-04-26 01:10 | 37.71049 | -122.21223 | 8 ft | 4 kts | 80° |
| 2026-04-26 01:10 | 37.71044 | -122.21256 | 8 ft | 4 kts | 78° |
| 2026-04-26 01:10 | 37.71039 | -122.21284 | 8 ft | 2 kts | 79° |
| 2026-04-26 01:10 | 37.71037 | -122.21317 | 8 ft | 4 kts | 96° |
| 2026-04-26 01:11 | 37.71043 | -122.21349 | 8 ft | 4 kts | 122° |
| 2026-04-26 01:11 | 37.71060 | -122.21370 | 8 ft | 2 kts | 158° |
| 2026-04-26 01:11 | 37.71061 | -122.21370 | 8 ft | 0 kts | 158° |
| 2026-04-26 01:15 | 37.71030 | -122.21367 | 9 ft | 8 kts | 189° |
| 2026-04-26 01:15 | 37.70972 | -122.21413 | 9 ft | 11 kts | 217° |
| 2026-04-26 01:15 | 37.70907 | -122.21474 | 8 ft | 11 kts | 217° |
| 2026-04-26 01:16 | 37.70869 | -122.21552 | 8 ft | 11 kts | 262° |
| 2026-04-26 01:16 | 37.70833 | -122.21633 | 9 ft | 11 kts | 221° |
| 2026-04-26 01:16 | 37.70766 | -122.21704 | 9 ft | 14 kts | 219° |
| 2026-04-26 01:16 | 37.70679 | -122.21779 | 9 ft | 16 kts | 192° |
| 2026-04-26 01:17 | 37.70591 | -122.21713 | 9 ft | 15 kts | 131° |
| 2026-04-26 01:17 | 37.70525 | -122.21614 | 9 ft | 14 kts | 130° |
| 2026-04-26 01:17 | 37.70462 | -122.21521 | 8 ft | 14 kts | 130° |
| 2026-04-26 01:17 | 37.70401 | -122.21431 | 10 ft | 13 kts | 134° |
| 2026-04-26 01:18 | 37.70319 | -122.21378 | 9 ft | 14 kts | 160° |
| 2026-04-26 01:18 | 37.70249 | -122.21357 | 8 ft | 7 kts | 183° |
| 2026-04-26 01:18 | 37.70220 | -122.21368 | 8 ft | 4 kts | 206° |
| 2026-04-26 01:18 | 37.70191 | -122.21394 | 9 ft | 8 kts | 218° |
| 2026-04-26 01:19 | 37.70171 | -122.21461 | 8 ft | 10 kts | 304° |
| 2026-04-26 01:19 | 37.70267 | -122.21604 | 7 ft | 53 kts | 310° |
| 2026-04-26 01:19 | 37.70688 | -122.22235 | 8 ft | 132 kts | 310° |
| 2026-04-26 01:19 | 37.71379 | -122.23301 | 373 ft | 168 kts | 308° |
| 2026-04-26 01:20 | 37.72159 | -122.24433 | 1284 ft | 166 kts | 306° |
| 2026-04-26 01:20 | 37.72789 | -122.25377 | 2204 ft | 123 kts | 304° |
| 2026-04-26 01:20 | 37.73327 | -122.26191 | 2337 ft | 128 kts | 306° |
| 2026-04-26 01:20 | 37.73961 | -122.27149 | 2246 ft | 151 kts | 307° |
| 2026-04-26 01:21 | 37.74624 | -122.28139 | 2660 ft | 138 kts | 307° |
| 2026-04-26 01:21 | 37.75210 | -122.29007 | 3014 ft | 128 kts | 308° |
| 2026-04-26 01:21 | 37.75848 | -122.29957 | 3340 ft | 151 kts | 308° |
| 2026-04-26 01:21 | 37.76502 | -122.30937 | 4201 ft | 139 kts | 308° |
| 2026-04-26 01:22 | 37.77110 | -122.31846 | 4950 ft | 134 kts | 309° |
| 2026-04-26 01:22 | 37.77727 | -122.32767 | 5544 ft | 141 kts | 309° |
| 2026-04-26 01:22 | 37.78372 | -122.33743 | 6207 ft | 146 kts | 304° |
| 2026-04-26 01:22 | 37.78631 | -122.34951 | 6784 ft | 153 kts | 253° |
| 2026-04-26 01:23 | 37.77977 | -122.36010 | 7322 ft | 162 kts | 199° |
| 2026-04-26 01:23 | 37.76922 | -122.36405 | 8230 ft | 151 kts | 196° |
| 2026-04-26 01:23 | 37.75969 | -122.36774 | 9126 ft | 140 kts | 195° |
| 2026-04-26 01:23 | 37.75012 | -122.37143 | 9685 ft | 152 kts | 195° |
| 2026-04-26 01:24 | 37.73918 | -122.37565 | 10026 ft | 182 kts | 196° |
| 2026-04-26 01:24 | 37.72545 | -122.38098 | 10058 ft | 227 kts | 196° |
| 2026-04-26 01:24 | 37.70914 | -122.38736 | 10077 ft | 271 kts | 197° |
| 2026-04-26 01:24 | 37.69026 | -122.39480 | 10047 ft | 287 kts | 197° |
| 2026-04-26 01:25 | 37.67104 | -122.40243 | 10009 ft | 289 kts | 197° |
| 2026-04-26 01:25 | 37.65187 | -122.41006 | 10005 ft | 288 kts | 197° |
| 2026-04-26 01:25 | 37.63278 | -122.41767 | 9988 ft | 287 kts | 197° |
| 2026-04-26 01:25 | 37.61366 | -122.42529 | 9992 ft | 286 kts | 197° |
| 2026-04-26 01:26 | 37.59486 | -122.43278 | 9993 ft | 286 kts | 197° |
| 2026-04-26 01:26 | 37.57590 | -122.44033 | 9994 ft | 286 kts | 197° |
| 2026-04-26 01:26 | 37.55691 | -122.44789 | 9997 ft | 286 kts | 197° |
| 2026-04-26 01:26 | 37.53791 | -122.45544 | 10006 ft | 286 kts | 197° |
| 2026-04-26 01:27 | 37.51893 | -122.46298 | 10015 ft | 287 kts | 197° |
| 2026-04-26 01:27 | 37.49926 | -122.46642 | 10004 ft | 287 kts | 174° |
| 2026-04-26 01:27 | 37.48039 | -122.45867 | 10046 ft | 292 kts | 149° |
| 2026-04-26 01:27 | 37.46406 | -122.44146 | 10285 ft | 322 kts | 135° |
| 2026-04-26 01:28 | 37.44828 | -122.42057 | 10876 ft | 340 kts | 133° |
| 2026-04-26 01:28 | 37.43217 | -122.39824 | 11825 ft | 345 kts | 131° |
| 2026-04-26 01:28 | 37.41611 | -122.37582 | 12915 ft | 346 kts | 131° |
| 2026-04-26 01:28 | 37.39976 | -122.35307 | 13819 ft | 353 kts | 131° |
| 2026-04-26 01:29 | 37.38303 | -122.32995 | 14713 ft | 359 kts | 131° |
| 2026-04-26 01:29 | 37.36611 | -122.30673 | 15661 ft | 362 kts | 132° |
| 2026-04-26 01:29 | 37.34915 | -122.28356 | 16563 ft | 366 kts | 132° |
| 2026-04-26 01:29 | 37.33175 | -122.25988 | 17454 ft | 370 kts | 131° |
| 2026-04-26 01:30 | 37.31419 | -122.23605 | 18337 ft | 373 kts | 132° |
| 2026-04-26 01:30 | 37.29639 | -122.21193 | 19134 ft | 378 kts | 132° |
| 2026-04-26 01:30 | 37.27833 | -122.18746 | 19850 ft | 384 kts | 133° |
| 2026-04-26 01:30 | 37.26001 | -122.16269 | 20592 ft | 389 kts | 133° |
| 2026-04-26 01:31 | 37.24168 | -122.13794 | 21301 ft | 394 kts | 133° |
| 2026-04-26 01:31 | 37.22288 | -122.11257 | 22009 ft | 398 kts | 133° |
| 2026-04-26 01:31 | 37.20387 | -122.08696 | 22680 ft | 403 kts | 134° |
| 2026-04-26 01:31 | 37.18462 | -122.06104 | 23349 ft | 407 kts | 134° |
| 2026-04-26 01:32 | 37.16543 | -122.03519 | 23967 ft | 411 kts | 134° |
| 2026-04-26 01:32 | 37.14581 | -122.00879 | 24567 ft | 416 kts | 134° |
| 2026-04-26 01:32 | 37.12602 | -121.98219 | 25199 ft | 418 kts | 135° |
| 2026-04-26 01:32 | 37.10612 | -121.95545 | 25857 ft | 419 kts | 135° |
| 2026-04-26 01:33 | 37.08607 | -121.92854 | 26448 ft | 422 kts | 135° |
| 2026-04-26 01:33 | 37.06598 | -121.90163 | 26979 ft | 425 kts | 135° |
| 2026-04-26 01:33 | 37.04562 | -121.87436 | 27489 ft | 428 kts | 135° |
| 2026-04-26 01:33 | 37.02549 | -121.84743 | 27989 ft | 431 kts | 136° |
| 2026-04-26 01:34 | 37.00489 | -121.81987 | 28486 ft | 433 kts | 136° |
| 2026-04-26 01:34 | 36.98423 | -121.79227 | 28987 ft | 436 kts | 136° |
| 2026-04-26 01:34 | 36.96343 | -121.76450 | 29437 ft | 439 kts | 136° |
| 2026-04-26 01:34 | 36.94965 | -121.74611 | 29735 ft | 440 kts | 136° |
| 2026-04-26 01:35 | 36.92149 | -121.70857 | 30285 ft | 443 kts | 136° |
| 2026-04-26 01:35 | 36.90745 | -121.68986 | 30539 ft | 445 kts | 136° |
| 2026-04-26 01:35 | 36.88618 | -121.66155 | 30974 ft | 446 kts | 136° |
| 2026-04-26 01:35 | 36.86496 | -121.63330 | 31542 ft | 443 kts | 137° |
| 2026-04-26 01:36 | 36.84391 | -121.60531 | 32090 ft | 441 kts | 137° |
| 2026-04-26 01:36 | 36.82289 | -121.57739 | 32527 ft | 441 kts | 137° |
| 2026-04-26 01:36 | 36.80215 | -121.54989 | 32924 ft | 441 kts | 137° |
| 2026-04-26 01:37 | 36.75996 | -121.49402 | 33768 ft | 440 kts | 138° |
| 2026-04-26 01:37 | 36.73898 | -121.46627 | 34200 ft | 439 kts | 138° |
| 2026-04-26 01:37 | 36.71822 | -121.43881 | 34578 ft | 439 kts | 138° |
| 2026-04-26 01:37 | 36.69714 | -121.41098 | 34884 ft | 441 kts | 138° |
| 2026-04-26 01:38 | 36.67588 | -121.38296 | 34930 ft | 447 kts | 138° |
| 2026-04-26 01:38 | 36.63304 | -121.32650 | 34930 ft | 447 kts | 138° |
| 2026-04-26 01:39 | 36.59103 | -121.27115 | 34930 ft | 440 kts | 138° |
| 2026-04-26 01:39 | 36.54879 | -121.21569 | 34939 ft | 441 kts | 138° |
| 2026-04-26 01:40 | 36.50643 | -121.16014 | 34935 ft | 442 kts | 139° |
| 2026-04-26 01:40 | 36.46414 | -121.10474 | 34940 ft | 442 kts | 139° |
| 2026-04-26 01:41 | 36.42186 | -121.04963 | 34930 ft | 442 kts | 139° |
| 2026-04-26 01:41 | 36.37871 | -120.99499 | 34934 ft | 442 kts | 140° |
| 2026-04-26 01:42 | 36.33555 | -120.94087 | 34936 ft | 442 kts | 140° |
| 2026-04-26 01:42 | 36.29218 | -120.88640 | 34947 ft | 443 kts | 140° |
| 2026-04-26 01:43 | 36.24914 | -120.83232 | 34947 ft | 444 kts | 140° |
| 2026-04-26 01:43 | 36.20562 | -120.77767 | 34944 ft | 444 kts | 140° |
| 2026-04-26 01:44 | 36.16235 | -120.72346 | 34941 ft | 445 kts | 140° |
| 2026-04-26 01:44 | 36.11895 | -120.66916 | 34933 ft | 445 kts | 140° |
| 2026-04-26 01:45 | 36.07527 | -120.61456 | 34937 ft | 445 kts | 140° |
| 2026-04-26 01:45 | 36.03185 | -120.56044 | 34943 ft | 444 kts | 140° |
| 2026-04-26 01:46 | 35.98820 | -120.50609 | 34949 ft | 444 kts | 140° |
| 2026-04-26 01:46 | 35.94490 | -120.45229 | 34945 ft | 445 kts | 141° |
| 2026-04-26 01:47 | 35.90115 | -120.39802 | 34950 ft | 445 kts | 141° |
| 2026-04-26 01:47 | 35.85733 | -120.34374 | 34942 ft | 445 kts | 141° |
| 2026-04-26 01:48 | 35.81376 | -120.28985 | 34940 ft | 446 kts | 141° |
| 2026-04-26 01:48 | 35.76978 | -120.23554 | 34946 ft | 446 kts | 141° |
| 2026-04-26 01:49 | 35.72621 | -120.18182 | 34945 ft | 445 kts | 141° |
| 2026-04-26 01:49 | 35.68228 | -120.12774 | 34940 ft | 446 kts | 141° |
| 2026-04-26 01:50 | 35.63461 | -120.08135 | 34966 ft | 434 kts | 154° |
| 2026-04-26 01:50 | 35.58259 | -120.04341 | 34955 ft | 433 kts | 155° |
| 2026-04-26 01:51 | 35.53084 | -120.00561 | 34949 ft | 434 kts | 154° |
| 2026-04-26 01:51 | 35.47915 | -119.96702 | 34946 ft | 434 kts | 155° |
| 2026-04-26 01:52 | 35.42779 | -119.92841 | 34936 ft | 434 kts | 155° |
| 2026-04-26 01:52 | 35.37618 | -119.88963 | 34955 ft | 434 kts | 155° |
| 2026-04-26 01:53 | 35.32484 | -119.85116 | 34952 ft | 435 kts | 155° |
| 2026-04-26 01:53 | 35.27336 | -119.81154 | 34936 ft | 439 kts | 152° |
| 2026-04-26 01:54 | 35.22481 | -119.76637 | 34951 ft | 442 kts | 149° |
| 2026-04-26 01:54 | 35.17653 | -119.71982 | 34932 ft | 442 kts | 149° |
| 2026-04-26 01:55 | 35.12789 | -119.67388 | 34933 ft | 441 kts | 150° |
| 2026-04-26 01:55 | 35.10340 | -119.65102 | 34586 ft | 445 kts | 150° |
| 2026-04-26 01:55 | 35.07865 | -119.62801 | 33874 ft | 446 kts | 150° |
| 2026-04-26 01:55 | 35.05392 | -119.60502 | 33038 ft | 445 kts | 150° |
| 2026-04-26 01:56 | 35.02941 | -119.58224 | 32183 ft | 446 kts | 150° |
| 2026-04-26 01:56 | 35.00469 | -119.55928 | 31294 ft | 446 kts | 150° |
| 2026-04-26 01:56 | 34.98015 | -119.53648 | 30673 ft | 439 kts | 150° |
| 2026-04-26 01:56 | 34.95592 | -119.51397 | 30017 ft | 434 kts | 150° |
| 2026-04-26 01:57 | 34.93197 | -119.49177 | 29359 ft | 429 kts | 150° |
| 2026-04-26 01:57 | 34.90864 | -119.47021 | 28762 ft | 423 kts | 150° |
| 2026-04-26 01:57 | 34.88523 | -119.44902 | 28328 ft | 413 kts | 151° |
| 2026-04-26 01:57 | 34.86228 | -119.42854 | 27884 ft | 406 kts | 151° |
| 2026-04-26 01:58 | 34.83950 | -119.40829 | 27462 ft | 403 kts | 152° |
| 2026-04-26 01:58 | 34.81671 | -119.38805 | 27046 ft | 407 kts | 152° |
| 2026-04-26 01:58 | 34.79404 | -119.36787 | 26623 ft | 410 kts | 151° |
| 2026-04-26 01:58 | 34.77103 | -119.34731 | 26176 ft | 406 kts | 151° |
| 2026-04-26 01:59 | 34.74833 | -119.32701 | 25734 ft | 401 kts | 151° |
| 2026-04-26 01:59 | 34.72585 | -119.30717 | 25303 ft | 393 kts | 152° |
| 2026-04-26 01:59 | 34.70415 | -119.28824 | 24892 ft | 387 kts | 152° |
| 2026-04-26 01:59 | 34.68231 | -119.26923 | 24479 ft | 382 kts | 152° |
| 2026-04-26 02:00 | 34.66056 | -119.25027 | 24070 ft | 380 kts | 152° |
| 2026-04-26 02:00 | 34.63909 | -119.23162 | 23789 ft | 379 kts | 152° |
| 2026-04-26 02:00 | 34.61772 | -119.21322 | 23526 ft | 383 kts | 153° |
| 2026-04-26 02:00 | 34.59589 | -119.19444 | 23298 ft | 383 kts | 153° |
| 2026-04-26 02:01 | 34.57418 | -119.17574 | 23033 ft | 380 kts | 152° |
| 2026-04-26 02:01 | 34.55294 | -119.15733 | 22580 ft | 381 kts | 152° |
| 2026-04-26 02:01 | 34.53129 | -119.13821 | 22013 ft | 383 kts | 151° |
| 2026-04-26 02:01 | 34.50977 | -119.11905 | 21421 ft | 381 kts | 151° |
| 2026-04-26 02:02 | 34.48856 | -119.10015 | 20859 ft | 376 kts | 151° |
| 2026-04-26 02:02 | 34.46756 | -119.08152 | 20271 ft | 372 kts | 151° |
| 2026-04-26 02:02 | 34.44698 | -119.06330 | 19718 ft | 368 kts | 151° |
| 2026-04-26 02:02 | 34.42629 | -119.04521 | 19160 ft | 362 kts | 152° |
| 2026-04-26 02:03 | 34.40611 | -119.02775 | 18605 ft | 357 kts | 152° |
| 2026-04-26 02:03 | 34.38598 | -119.01038 | 18065 ft | 353 kts | 152° |
| 2026-04-26 02:03 | 34.36601 | -118.99312 | 17525 ft | 348 kts | 151° |
| 2026-04-26 02:03 | 34.34634 | -118.97610 | 17008 ft | 345 kts | 151° |
| 2026-04-26 02:04 | 34.32730 | -118.95924 | 16575 ft | 342 kts | 150° |
| 2026-04-26 02:04 | 34.30833 | -118.94195 | 16158 ft | 341 kts | 149° |
| 2026-04-26 02:04 | 34.28927 | -118.92455 | 15751 ft | 341 kts | 149° |
| 2026-04-26 02:04 | 34.27023 | -118.90724 | 15334 ft | 343 kts | 149° |
| 2026-04-26 02:05 | 34.25133 | -118.89009 | 14898 ft | 344 kts | 149° |
| 2026-04-26 02:05 | 34.23224 | -118.87258 | 14470 ft | 343 kts | 148° |
| 2026-04-26 02:05 | 34.21330 | -118.85514 | 14050 ft | 343 kts | 149° |
| 2026-04-26 02:05 | 34.19456 | -118.83789 | 13620 ft | 339 kts | 148° |
| 2026-04-26 02:06 | 34.17603 | -118.82083 | 13186 ft | 326 kts | 149° |
| 2026-04-26 02:06 | 34.15855 | -118.80432 | 12795 ft | 312 kts | 146° |
| 2026-04-26 02:06 | 34.14261 | -118.78727 | 12461 ft | 301 kts | 144° |
| 2026-04-26 02:06 | 34.12744 | -118.77047 | 12176 ft | 298 kts | 143° |
| 2026-04-26 02:07 | 34.11198 | -118.75334 | 11819 ft | 297 kts | 143° |
| 2026-04-26 02:07 | 34.09691 | -118.73679 | 11506 ft | 296 kts | 143° |
| 2026-04-26 02:07 | 34.08167 | -118.72015 | 11165 ft | 295 kts | 144° |
| 2026-04-26 02:07 | 34.06649 | -118.70364 | 10853 ft | 291 kts | 143° |
| 2026-04-26 02:08 | 34.05143 | -118.68731 | 10517 ft | 291 kts | 142° |
| 2026-04-26 02:08 | 34.03684 | -118.67040 | 10179 ft | 292 kts | 131° |
| 2026-04-26 02:08 | 34.02809 | -118.64829 | 9854 ft | 295 kts | 106° |
| 2026-04-26 02:08 | 34.02549 | -118.62728 | 9590 ft | 292 kts | 98° |
| 2026-04-26 02:09 | 34.02352 | -118.60301 | 9257 ft | 289 kts | 98° |
| 2026-04-26 02:09 | 34.02148 | -118.57903 | 8938 ft | 286 kts | 97° |
| 2026-04-26 02:09 | 34.01945 | -118.55632 | 8637 ft | 282 kts | 97° |
| 2026-04-26 02:09 | 34.01731 | -118.53286 | 8316 ft | 279 kts | 98° |
| 2026-04-26 02:10 | 34.01515 | -118.50975 | 8005 ft | 273 kts | 98° |
| 2026-04-26 02:10 | 34.01305 | -118.48740 | 7702 ft | 264 kts | 98° |
| 2026-04-26 02:10 | 34.01102 | -118.46580 | 7400 ft | 255 kts | 98° |
| 2026-04-26 02:10 | 34.01144 | -118.44478 | 7118 ft | 247 kts | 81° |
| 2026-04-26 02:11 | 34.01492 | -118.42488 | 6876 ft | 246 kts | 78° |
| 2026-04-26 02:11 | 34.01870 | -118.40497 | 6619 ft | 246 kts | 78° |
| 2026-04-26 02:11 | 34.02240 | -118.38467 | 6343 ft | 246 kts | 78° |
| 2026-04-26 02:11 | 34.02599 | -118.36447 | 6080 ft | 246 kts | 79° |
| 2026-04-26 02:12 | 34.02897 | -118.34428 | 6019 ft | 243 kts | 83° |
| 2026-04-26 02:12 | 34.03098 | -118.32429 | 6007 ft | 242 kts | 84° |
| 2026-04-26 02:12 | 34.03293 | -118.30406 | 6008 ft | 243 kts | 84° |
| 2026-04-26 02:12 | 34.03489 | -118.28381 | 6005 ft | 242 kts | 84° |
| 2026-04-26 02:13 | 34.03676 | -118.26352 | 5986 ft | 242 kts | 85° |
| 2026-04-26 02:13 | 34.03850 | -118.24346 | 5776 ft | 240 kts | 85° |
| 2026-04-26 02:13 | 34.04023 | -118.22348 | 5482 ft | 240 kts | 85° |
| 2026-04-26 02:13 | 34.04193 | -118.20362 | 5199 ft | 240 kts | 85° |
| 2026-04-26 02:14 | 34.04372 | -118.18357 | 4948 ft | 238 kts | 85° |
| 2026-04-26 02:14 | 34.04463 | -118.16377 | 4649 ft | 237 kts | 102° |
| 2026-04-26 02:14 | 34.03711 | -118.14679 | 4340 ft | 229 kts | 143° |
| 2026-04-26 02:14 | 34.02292 | -118.13993 | 4051 ft | 219 kts | 183° |
| 2026-04-26 02:15 | 34.00922 | -118.14573 | 3750 ft | 213 kts | 223° |
| 2026-04-26 02:15 | 33.99940 | -118.15897 | 3483 ft | 211 kts | 231° |
| 2026-04-26 02:15 | 33.98999 | -118.17267 | 3201 ft | 212 kts | 231° |
| 2026-04-26 02:15 | 33.98070 | -118.18624 | 2951 ft | 211 kts | 232° |
| 2026-04-26 02:16 | 33.97427 | -118.20184 | 2683 ft | 210 kts | 258° |
| 2026-04-26 02:16 | 33.97145 | -118.21907 | 2669 ft | 214 kts | 259° |
| 2026-04-26 02:16 | 33.96913 | -118.23680 | 2613 ft | 212 kts | 262° |
| 2026-04-26 02:16 | 33.96729 | -118.25403 | 2507 ft | 204 kts | 262° |
| 2026-04-26 02:17 | 33.96559 | -118.27064 | 2258 ft | 196 kts | 262° |
| 2026-04-26 02:17 | 33.96400 | -118.28620 | 2013 ft | 182 kts | 262° |
| 2026-04-26 02:17 | 33.96249 | -118.30078 | 1781 ft | 168 kts | 262° |
| 2026-04-26 02:17 | 33.96110 | -118.31428 | 1568 ft | 155 kts | 263° |
| 2026-04-26 02:18 | 33.95984 | -118.32643 | 1394 ft | 138 kts | 263° |
| 2026-04-26 02:18 | 33.95871 | -118.33746 | 1203 ft | 128 kts | 262° |
| 2026-04-26 02:18 | 33.95764 | -118.34785 | 986 ft | 125 kts | 262° |
| 2026-04-26 02:18 | 33.95660 | -118.35818 | 832 ft | 123 kts | 262° |
| 2026-04-26 02:19 | 33.95550 | -118.36847 | 701 ft | 122 kts | 262° |
| 2026-04-26 02:19 | 33.95445 | -118.37874 | 527 ft | 127 kts | 262° |
| 2026-04-26 02:19 | 33.95344 | -118.38938 | 352 ft | 129 kts | 263° |
| 2026-04-26 02:19 | 33.95231 | -118.40015 | 178 ft | 129 kts | 262° |
| 2026-04-26 02:20 | 33.95124 | -118.41046 | 106 ft | 111 kts | 262° |
| 2026-04-26 02:20 | 33.95055 | -118.41705 | 107 ft | 48 kts | 262° |
| 2026-04-26 02:20 | 33.95030 | -118.41940 | 107 ft | 23 kts | 263° |
| 2026-04-26 02:20 | 33.94984 | -118.42121 | 106 ft | 22 kts | 240° |
| 2026-04-26 02:21 | 33.94900 | -118.42238 | 103 ft | 7 kts | 221° |
| 2026-04-26 02:21 | 33.94897 | -118.42242 | 103 ft | 0 kts | 220° |
| 2026-04-26 02:21 | 33.94839 | -118.42276 | 106 ft | 15 kts | 194° |
| 2026-04-26 02:22 | 33.94727 | -118.42276 | 101 ft | 16 kts | 170° |
| 2026-04-26 02:22 | 33.94651 | -118.42261 | 96 ft | 15 kts | 169° |
| 2026-04-26 02:22 | 33.94612 | -118.42155 | 95 ft | 15 kts | 86° |
| 2026-04-26 02:22 | 33.94625 | -118.42023 | 95 ft | 17 kts | 83° |
| 2026-04-26 02:23 | 33.94633 | -118.41878 | 95 ft | 17 kts | 71° |
| 2026-04-26 02:23 | 33.94721 | -118.41789 | 97 ft | 17 kts | 59° |
| 2026-04-26 02:23 | 33.94741 | -118.41655 | 97 ft | 16 kts | 83° |
| 2026-04-26 02:23 | 33.94754 | -118.41525 | 98 ft | 16 kts | 83° |
| 2026-04-26 02:24 | 33.94777 | -118.41394 | 100 ft | 17 kts | 73° |
| 2026-04-26 02:24 | 33.94796 | -118.41244 | 99 ft | 20 kts | 83° |
| 2026-04-26 02:24 | 33.94814 | -118.41070 | 99 ft | 21 kts | 83° |
| 2026-04-26 02:24 | 33.94832 | -118.40895 | 99 ft | 21 kts | 83° |
| 2026-04-26 02:25 | 33.94850 | -118.40727 | 99 ft | 19 kts | 83° |
| 2026-04-26 02:25 | 33.94866 | -118.40570 | 99 ft | 18 kts | 83° |
| 2026-04-26 02:25 | 33.94882 | -118.40424 | 99 ft | 17 kts | 83° |
| 2026-04-26 02:25 | 33.94884 | -118.40324 | 98 ft | 11 kts | 111° |
| 2026-04-26 02:26 | 33.94830 | -118.40259 | 95 ft | 11 kts | 112° |
| 2026-04-26 02:26 | 33.94833 | -118.40167 | 95 ft | 11 kts | 82° |
| 2026-04-26 02:26 | 33.94842 | -118.40078 | 95 ft | 10 kts | 83° |
| 2026-04-26 02:26 | 33.94824 | -118.40012 | 95 ft | 8 kts | 144° |
| 2026-04-26 02:27 | 33.94767 | -118.40008 | 94 ft | 8 kts | 184° |
| 2026-04-26 02:27 | 33.94722 | -118.40011 | 94 ft | 5 kts | 181° |
| 2026-04-26 02:27 | 33.94696 | -118.40025 | 94 ft | 5 kts | 244° |
| 2026-04-26 02:27 | 33.94693 | -118.40055 | 94 ft | 2 kts | 265° |
| 2026-04-26 02:28 | 33.94692 | -118.40062 | 94 ft | 0 kts | 265° |